Time;durP1;ratioP1;P1;durP2;ratioP2;P2;SDS_P1;SDS_P2;PMS_P1;PMS_P2;Temp;Humidity;BMP_temperature;BMP_pressure;BME280_temperature;BME280_humidity;BME280_pressure;Samples;Min_cycle;Max_cycle;Signal;HPM_P1;HPM_P2
2022/07/12 00:02:02;;;;;;;4.67;2.93;;;;;;;;;;5001718;28;20190;-72
2022/07/12 00:04:27;;;;;;;3.00;2.70;;;;;;;;;;5007234;28;20448;-71
2022/07/12 00:06:53;;;;;;;2.83;2.63;;;;;;;;;;5003176;28;20263;-69
2022/07/12 00:09:19;;;;;;;2.90;2.60;;;;;;;;;;5007955;28;20254;-72
2022/07/12 00:11:44;;;;;;;2.85;2.63;;;;;;;;;;4988846;28;20183;-69
2022/07/12 00:14:12;;;;;;;2.75;2.53;;;;;;;;;;4986732;28;20213;-68
2022/07/12 00:16:37;;;;;;;4.10;2.88;;;;;;;;;;5009736;28;20183;-71
2022/07/12 00:19:02;;;;;;;3.38;3.08;;;;;;;;;;5005922;28;20366;-71
2022/07/12 00:21:28;;;;;;;2.83;2.63;;;;;;;;;;5004879;28;20174;-69
2022/07/12 00:23:53;;;;;;;3.35;3.10;;;;;;;;;;5006917;28;20684;-70
2022/07/12 00:26:18;;;;;;;4.18;3.63;;;;;;;;;;5008456;28;20657;-70
2022/07/12 00:28:44;;;;;;;3.95;3.55;;;;;;;;;;5009565;28;20183;-70
2022/07/12 00:31:09;;;;;;;3.55;3.25;;;;;;;;;;4983255;28;20187;-70
2022/07/12 00:33:35;;;;;;;4.18;3.20;;;;;;;;;;5008861;28;20175;-69
2022/07/12 00:36:00;;;;;;;4.00;3.10;;;;;;;;;;5006512;28;20171;-70
2022/07/12 00:38:25;;;;;;;3.60;3.30;;;;;;;;;;5008968;28;20266;-70
2022/07/12 00:40:51;;;;;;;4.03;3.72;;;;;;;;;;5007921;28;20582;-71
2022/07/12 00:43:16;;;;;;;3.50;3.20;;;;;;;;;;5007927;28;20211;-70
2022/07/12 00:45:41;;;;;;;3.78;3.47;;;;;;;;;;5009968;28;20282;-69
2022/07/12 00:48:07;;;;;;;5.45;3.70;;;;;;;;;;5010716;28;20191;-69
2022/07/12 00:50:32;;;;;;;4.20;3.17;;;;;;;;;;5004800;28;20646;-70
2022/07/12 00:52:58;;;;;;;4.22;3.25;;;;;;;;;;5012006;28;20681;-70
2022/07/12 00:55:23;;;;;;;4.95;3.50;;;;;;;;;;5012451;28;20740;-70
2022/07/12 00:57:49;;;;;;;3.80;3.40;;;;;;;;;;5011266;28;20193;-70
2022/07/12 01:00:16;;;;;;;4.57;4.18;;;;;;;;;;4994579;28;20257;-70
2022/07/12 01:02:42;;;;;;;3.75;3.38;;;;;;;;;;5010684;28;20206;-70
2022/07/12 01:05:08;;;;;;;3.60;3.30;;;;;;;;;;5005218;28;20258;-70
2022/07/12 01:07:36;;;;;;;6.13;3.60;;;;;;;;;;5006217;28;20663;-70
2022/07/12 01:10:02;;;;;;;3.72;3.42;;;;;;;;;;4987723;28;20229;-70
2022/07/12 01:12:28;;;;;;;3.75;3.42;;;;;;;;;;5008152;28;20183;-70
2022/07/12 01:14:53;;;;;;;3.88;3.58;;;;;;;;;;5011423;28;20545;-69
2022/07/12 01:17:20;;;;;;;4.10;3.80;;;;;;;;;;5013105;28;20190;-70
2022/07/12 01:19:45;;;;;;;4.03;3.65;;;;;;;;;;5007388;28;20233;-70
2022/07/12 01:22:13;;;;;;;3.08;2.80;;;;;;;;;;5012488;28;20179;-70
2022/07/12 01:24:38;;;;;;;3.92;3.63;;;;;;;;;;5011941;28;20206;-69
2022/07/12 01:27:04;;;;;;;3.83;3.53;;;;;;;;;;5007533;28;20175;-69
2022/07/12 01:29:30;;;;;;;4.55;4.15;;;;;;;;;;5007255;28;20430;-70
2022/07/12 01:31:55;;;;;;;5.65;5.15;;;;;;;;;;5009288;28;20258;-70
2022/07/12 01:34:21;;;;;;;5.15;4.75;;;;;;;;;;5010219;28;20653;-70
2022/07/12 01:36:46;;;;;;;4.75;4.35;;;;;;;;;;5007584;28;20529;-69
2022/07/12 01:39:11;;;;;;;5.43;4.93;;;;;;;;;;5010677;28;20174;-70
2022/07/12 01:41:37;;;;;;;5.05;4.65;;;;;;;;;;5012304;28;20197;-71
2022/07/12 01:44:03;;;;;;;5.95;5.45;;;;;;;;;;5010429;28;20206;-70
2022/07/12 01:46:28;;;;;;;6.18;5.65;;;;;;;;;;5004431;28;20174;-70
2022/07/12 01:48:53;;;;;;;5.50;4.80;;;;;;;;;;5008649;28;20273;-70
2022/07/12 01:51:18;;;;;;;6.10;5.22;;;;;;;;;;5012124;28;20190;-70
2022/07/12 01:53:43;;;;;;;6.18;5.45;;;;;;;;;;5005555;28;20222;-71
2022/07/12 01:56:09;;;;;;;6.75;6.07;;;;;;;;;;5010143;28;20199;-69
2022/07/12 01:58:34;;;;;;;6.68;6.03;;;;;;;;;;4997010;28;20619;-69
2022/07/12 02:01:00;;;;;;;7.15;6.45;;;;;;;;;;5010042;28;20183;-70
2022/07/12 02:03:26;;;;;;;7.40;6.72;;;;;;;;;;5012544;28;20210;-69
2022/07/12 02:05:51;;;;;;;7.57;6.78;;;;;;;;;;4998311;28;20175;-70
2022/07/12 02:08:16;;;;;;;7.53;6.85;;;;;;;;;;5004605;28;20225;-69
2022/07/12 02:10:42;;;;;;;8.13;7.05;;;;;;;;;;5007883;28;20179;-68
2022/07/12 02:13:07;;;;;;;7.60;6.90;;;;;;;;;;5011997;28;20202;-69
2022/07/12 02:15:33;;;;;;;7.70;7.00;;;;;;;;;;5011039;28;20207;-70
2022/07/12 02:17:58;;;;;;;7.05;6.45;;;;;;;;;;5016789;28;20198;-69
2022/07/12 02:20:23;;;;;;;6.78;6.18;;;;;;;;;;5008039;28;20175;-70
2022/07/12 02:22:49;;;;;;;7.97;7.18;;;;;;;;;;4978396;28;20298;-70
2022/07/12 02:25:14;;;;;;;7.10;6.40;;;;;;;;;;5005881;28;20214;-69
2022/07/12 02:27:43;;;;;;;7.32;6.72;;;;;;;;;;5011331;28;20187;-70
2022/07/12 02:30:09;;;;;;;6.55;6.03;;;;;;;;;;5010554;28;20190;-70
2022/07/12 02:32:34;;;;;;;7.70;6.88;;;;;;;;;;5011398;28;20183;-69
2022/07/12 02:35:00;;;;;;;7.32;6.72;;;;;;;;;;5039034;22;20695;-73
2022/07/12 02:37:25;;;;;;;7.57;6.45;;;;;;;;;;5033160;28;20228;-73
2022/07/12 02:39:50;;;;;;;7.00;6.25;;;;;;;;;;5039926;28;20173;-73
2022/07/12 02:42:15;;;;;;;6.53;5.72;;;;;;;;;;5048602;28;20224;-73
2022/07/12 02:44:41;;;;;;;6.43;5.82;;;;;;;;;;5051514;28;20251;-73
2022/07/12 02:47:06;;;;;;;7.72;7.03;;;;;;;;;;5049369;28;20169;-73
2022/07/12 02:49:31;;;;;;;7.32;6.47;;;;;;;;;;5036309;28;20189;-73
2022/07/12 02:51:56;;;;;;;8.60;7.85;;;;;;;;;;5051653;28;20270;-72
2022/07/12 02:54:21;;;;;;;8.07;7.28;;;;;;;;;;5050639;28;20201;-73
2022/07/12 02:56:47;;;;;;;8.48;7.63;;;;;;;;;;5049464;28;20655;-73
2022/07/12 02:59:12;;;;;;;8.13;7.32;;;;;;;;;;5049873;28;20192;-73
2022/07/12 03:01:37;;;;;;;9.43;8.52;;;;;;;;;;5049569;28;20177;-73
2022/07/12 03:04:02;;;;;;;8.68;7.65;;;;;;;;;;5042918;28;20209;-73
2022/07/12 03:06:27;;;;;;;9.00;8.13;;;;;;;;;;5044076;28;20188;-73
2022/07/12 03:08:53;;;;;;;9.10;8.20;;;;;;;;;;5038348;28;20659;-72
2022/07/12 03:11:18;;;;;;;8.65;7.85;;;;;;;;;;5043101;28;20184;-73
2022/07/12 03:13:43;;;;;;;9.15;8.30;;;;;;;;;;5047407;28;20170;-73
2022/07/12 03:16:08;;;;;;;10.05;8.48;;;;;;;;;;5047251;28;20284;-72
2022/07/12 03:18:34;;;;;;;8.00;7.30;;;;;;;;;;5051148;28;21355;-73
2022/07/12 03:20:59;;;;;;;9.63;8.70;;;;;;;;;;5032833;28;20174;-73
2022/07/12 03:23:24;;;;;;;8.90;8.00;;;;;;;;;;5030051;28;20292;-73
2022/07/12 03:25:49;;;;;;;9.30;8.40;;;;;;;;;;5030088;28;20224;-72
2022/07/12 03:28:15;;;;;;;8.90;8.00;;;;;;;;;;5040329;28;20173;-73
2022/07/12 03:30:40;;;;;;;12.70;9.50;;;;;;;;;;5045465;28;20177;-73
2022/07/12 03:33:05;;;;;;;9.27;7.68;;;;;;;;;;5040911;28;20186;-72
2022/07/12 03:35:30;;;;;;;10.07;9.07;;;;;;;;;;5043351;28;20264;-73
2022/07/12 03:37:55;;;;;;;9.43;8.52;;;;;;;;;;5044775;28;20182;-72
2022/07/12 03:40:21;;;;;;;10.70;9.70;;;;;;;;;;5038831;28;20714;-72
2022/07/12 03:42:46;;;;;;;10.48;9.57;;;;;;;;;;5048308;28;20633;-72
2022/07/12 03:45:12;;;;;;;12.00;10.73;;;;;;;;;;5043671;28;20231;-72
2022/07/12 03:47:38;;;;;;;10.25;9.25;;;;;;;;;;5049235;28;20186;-72
2022/07/12 03:50:04;;;;;;;10.60;9.55;;;;;;;;;;5044579;28;20208;-72
2022/07/12 03:52:30;;;;;;;13.07;11.13;;;;;;;;;;5045846;28;20235;-72
2022/07/12 03:54:55;;;;;;;11.55;10.45;;;;;;;;;;5048874;28;20641;-71
2022/07/12 03:57:20;;;;;;;11.57;10.18;;;;;;;;;;5048045;28;20308;-72
2022/07/12 03:59:45;;;;;;;10.23;9.00;;;;;;;;;;5046959;28;20281;-72
2022/07/12 04:02:11;;;;;;;15.60;11.32;;;;;;;;;;5043748;28;20737;-72
2022/07/12 04:04:36;;;;;;;10.13;9.18;;;;;;;;;;5044851;28;20284;-72
2022/07/12 04:07:02;;;;;;;10.77;9.77;;;;;;;;;;5042106;28;20367;-71
2022/07/12 04:09:27;;;;;;;10.80;9.70;;;;;;;;;;5040447;28;20174;-72
2022/07/12 04:11:53;;;;;;;10.55;9.52;;;;;;;;;;5048838;28;20544;-72
2022/07/12 04:14:18;;;;;;;11.50;10.40;;;;;;;;;;5048653;28;20216;-72
2022/07/12 04:16:44;;;;;;;11.68;10.48;;;;;;;;;;5048361;28;20190;-72
2022/07/12 04:19:09;;;;;;;14.57;12.90;;;;;;;;;;5048003;28;20260;-72
2022/07/12 04:21:35;;;;;;;13.32;12.02;;;;;;;;;;5050204;28;20181;-73
2022/07/12 04:24:00;;;;;;;13.75;12.30;;;;;;;;;;5044342;28;20299;-73
2022/07/12 04:26:25;;;;;;;13.50;12.10;;;;;;;;;;5043795;28;20658;-72
2022/07/12 04:28:50;;;;;;;14.48;13.18;;;;;;;;;;5053751;28;20209;-73
2022/07/12 04:31:15;;;;;;;13.77;12.48;;;;;;;;;;5032437;28;20204;-73
2022/07/12 04:33:40;;;;;;;13.07;11.77;;;;;;;;;;5050489;28;20204;-73
2022/07/12 04:36:06;;;;;;;12.85;11.65;;;;;;;;;;5052978;28;20299;-73
2022/07/12 04:38:31;;;;;;;13.00;11.75;;;;;;;;;;5035837;28;20573;-73
2022/07/12 04:40:56;;;;;;;10.32;9.43;;;;;;;;;;5044423;28;20297;-73
2022/07/12 04:43:24;;;;;;;10.57;9.57;;;;;;;;;;5048023;28;20580;-73
2022/07/12 04:45:49;;;;;;;10.05;8.63;;;;;;;;;;5052492;28;20469;-73
2022/07/12 04:48:14;;;;;;;8.98;8.18;;;;;;;;;;5052537;28;20209;-73
2022/07/12 04:50:39;;;;;;;9.10;8.30;;;;;;;;;;5051311;28;20190;-73
2022/07/12 04:53:05;;;;;;;8.40;7.60;;;;;;;;;;5054430;28;20414;-73
2022/07/12 04:55:30;;;;;;;9.13;8.30;;;;;;;;;;5052009;28;20205;-73
2022/07/12 04:57:55;;;;;;;8.05;7.40;;;;;;;;;;5052710;28;20182;-73
2022/07/12 05:00:21;;;;;;;8.68;7.75;;;;;;;;;;5052288;28;20182;-73
2022/07/12 05:02:46;;;;;;;8.40;7.75;;;;;;;;;;5051836;28;20231;-73
2022/07/12 05:05:11;;;;;;;8.70;8.00;;;;;;;;;;5051439;28;20205;-73
2022/07/12 05:07:36;;;;;;;9.88;9.07;;;;;;;;;;5031876;28;20216;-72
2022/07/12 05:10:02;;;;;;;10.60;8.50;;;;;;;;;;5045369;28;20174;-73
2022/07/12 05:12:27;;;;;;;9.50;8.70;;;;;;;;;;5051030;28;20957;-73
2022/07/12 05:14:52;;;;;;;10.90;8.47;;;;;;;;;;5050842;28;20667;-72
2022/07/12 05:17:17;;;;;;;10.82;9.75;;;;;;;;;;5046566;28;20475;-72
2022/07/12 05:19:43;;;;;;;10.00;9.10;;;;;;;;;;5046866;28;20296;-73
2022/07/12 05:22:08;;;;;;;9.63;8.82;;;;;;;;;;5035273;28;20430;-73
2022/07/12 05:24:34;;;;;;;11.20;10.20;;;;;;;;;;5035290;28;20206;-73
2022/07/12 05:27:00;;;;;;;10.27;9.40;;;;;;;;;;5022235;28;20882;-73
2022/07/12 05:29:25;;;;;;;10.15;9.25;;;;;;;;;;5048756;28;20666;-72
2022/07/12 05:31:50;;;;;;;10.20;9.30;;;;;;;;;;5048906;28;20180;-73
2022/07/12 05:34:15;;;;;;;10.70;9.77;;;;;;;;;;5048863;28;20631;-72
2022/07/12 05:36:40;;;;;;;11.17;10.07;;;;;;;;;;5048604;28;20446;-73
2022/07/12 05:39:06;;;;;;;10.30;9.35;;;;;;;;;;5040571;28;20429;-72
2022/07/12 05:41:31;;;;;;;10.30;9.30;;;;;;;;;;5042075;28;20186;-72
2022/07/12 05:43:56;;;;;;;9.88;9.07;;;;;;;;;;5028168;28;20202;-72
2022/07/12 05:46:22;;;;;;;11.05;10.15;;;;;;;;;;5042604;28;20181;-72
2022/07/12 05:48:48;;;;;;;12.30;11.23;;;;;;;;;;5036055;28;20200;-72
2022/07/12 05:53:57;;;;;;;10.55;9.65;;;;;;;;;;5050541;28;20228;-72
2022/07/12 05:56:22;;;;;;;10.57;9.57;;;;;;;;;;5047413;28;20173;-72
2022/07/12 05:58:47;;;;;;;9.27;8.37;;;;;;;;;;5030836;28;20443;-72
2022/07/12 06:01:12;;;;;;;9.48;8.57;;;;;;;;;;5041311;28;20529;-72
2022/07/12 06:03:38;;;;;;;9.67;8.70;;;;;;;;;;5033763;28;20229;-72
2022/07/12 06:06:03;;;;;;;8.10;7.23;;;;;;;;;;5044997;28;20492;-72
2022/07/12 06:08:28;;;;;;;9.18;8.48;;;;;;;;;;5033065;28;20441;-72
2022/07/12 06:10:53;;;;;;;9.00;8.20;;;;;;;;;;5049424;28;20184;-72
2022/07/12 06:13:18;;;;;;;9.40;8.50;;;;;;;;;;5044768;28;20458;-72
2022/07/12 06:15:43;;;;;;;9.15;8.23;;;;;;;;;;5027731;28;20201;-72
2022/07/12 06:18:09;;;;;;;7.07;6.30;;;;;;;;;;5048991;28;20181;-72
2022/07/12 06:20:34;;;;;;;6.38;5.88;;;;;;;;;;5042077;28;20432;-72
2022/07/12 06:22:59;;;;;;;7.20;6.60;;;;;;;;;;5049137;28;20202;-73
2022/07/12 06:25:25;;;;;;;8.00;6.68;;;;;;;;;;5049296;28;20205;-72
2022/07/12 06:27:50;;;;;;;5.75;5.22;;;;;;;;;;5051544;28;20173;-72
2022/07/12 06:30:19;;;;;;;5.75;5.20;;;;;;;;;;5048925;28;20185;-73
2022/07/12 06:32:45;;;;;;;7.65;6.43;;;;;;;;;;5048552;28;20247;-72
2022/07/12 06:35:10;;;;;;;6.03;5.53;;;;;;;;;;5050441;28;20219;-72
2022/07/12 06:37:36;;;;;;;5.18;4.78;;;;;;;;;;5049759;28;20272;-72
2022/07/12 06:40:01;;;;;;;6.78;6.05;;;;;;;;;;5050702;28;20177;-70
2022/07/12 06:42:26;;;;;;;7.77;5.70;;;;;;;;;;5047141;28;20564;-73
2022/07/12 06:44:51;;;;;;;7.07;6.38;;;;;;;;;;5039814;28;20499;-73
2022/07/12 06:47:16;;;;;;;7.93;7.33;;;;;;;;;;5046305;28;20170;-72
2022/07/12 06:49:42;;;;;;;9.05;8.27;;;;;;;;;;5053756;28;20473;-72
2022/07/12 06:52:07;;;;;;;6.50;5.93;;;;;;;;;;5048115;28;20205;-73
2022/07/12 06:54:32;;;;;;;6.53;5.97;;;;;;;;;;5049981;28;20573;-70
2022/07/12 06:56:57;;;;;;;6.40;5.88;;;;;;;;;;5031593;28;20480;-72
2022/07/12 06:59:23;;;;;;;7.80;7.10;;;;;;;;;;5022976;28;20181;-73
2022/07/12 07:01:49;;;;;;;7.50;6.80;;;;;;;;;;5029355;28;20727;-73
2022/07/12 07:04:14;;;;;;;7.70;7.00;;;;;;;;;;5022066;28;20484;-72
2022/07/12 07:06:40;;;;;;;5.75;5.25;;;;;;;;;;5023715;28;20733;-73
2022/07/12 07:09:08;;;;;;;7.43;6.75;;;;;;;;;;5011575;28;20175;-72
2022/07/12 07:11:34;;;;;;;8.88;6.55;;;;;;;;;;5021989;28;20186;-73
2022/07/12 07:13:59;;;;;;;6.93;6.35;;;;;;;;;;5041943;28;20188;-72
2022/07/12 07:16:24;;;;;;;7.23;6.37;;;;;;;;;;5049661;28;20181;-72
2022/07/12 07:18:50;;;;;;;8.75;7.60;;;;;;;;;;5053411;28;20431;-72
2022/07/12 07:21:15;;;;;;;7.85;7.22;;;;;;;;;;5049106;28;20178;-72
2022/07/12 07:23:40;;;;;;;7.93;7.22;;;;;;;;;;5049948;28;20899;-72
2022/07/12 07:26:06;;;;;;;7.80;7.15;;;;;;;;;;5029772;28;20328;-72
2022/07/12 07:28:31;;;;;;;8.20;7.22;;;;;;;;;;5046814;28;20193;-72
2022/07/12 07:30:57;;;;;;;9.80;7.50;;;;;;;;;;5049703;28;20367;-72
2022/07/12 07:33:23;;;;;;;8.52;7.82;;;;;;;;;;5050050;28;20526;-73
2022/07/12 07:35:49;;;;;;;8.50;7.70;;;;;;;;;;5049047;28;20660;-73
2022/07/12 07:38:15;;;;;;;7.65;7.05;;;;;;;;;;5050442;28;20256;-73
2022/07/12 07:40:40;;;;;;;7.00;6.40;;;;;;;;;;5050590;28;20701;-73
2022/07/12 07:43:06;;;;;;;7.90;7.25;;;;;;;;;;5050761;28;20192;-73
2022/07/12 07:45:31;;;;;;;7.87;5.97;;;;;;;;;;5029313;28;20197;-73
2022/07/12 07:47:56;;;;;;;5.70;5.20;;;;;;;;;;5020155;28;20508;-73
2022/07/12 07:50:21;;;;;;;5.40;4.97;;;;;;;;;;5020719;28;20426;-73
2022/07/12 07:52:48;;;;;;;6.50;5.90;;;;;;;;;;5020144;28;20350;-73
2022/07/12 07:55:14;;;;;;;7.30;5.32;;;;;;;;;;5024112;28;20826;-73
2022/07/12 07:57:39;;;;;;;6.25;5.75;;;;;;;;;;5019935;28;20193;-73
2022/07/12 08:00:04;;;;;;;6.32;5.70;;;;;;;;;;5020677;28;20227;-73
2022/07/12 08:02:30;;;;;;;7.65;6.28;;;;;;;;;;5026612;28;20181;-73
2022/07/12 08:04:55;;;;;;;7.53;6.40;;;;;;;;;;5024509;28;20821;-73
2022/07/12 08:07:20;;;;;;;7.00;6.40;;;;;;;;;;5021339;28;20419;-73
2022/07/12 08:09:45;;;;;;;6.43;5.83;;;;;;;;;;5024157;28;20451;-73
2022/07/12 08:12:11;;;;;;;7.60;6.90;;;;;;;;;;5009138;28;20434;-73
2022/07/12 08:14:36;;;;;;;6.05;5.55;;;;;;;;;;5028281;28;20193;-73
2022/07/12 08:17:01;;;;;;;5.80;4.67;;;;;;;;;;5021565;28;20182;-73
2022/07/12 08:19:26;;;;;;;5.30;4.80;;;;;;;;;;5035165;28;20426;-73
2022/07/12 08:21:52;;;;;;;7.23;5.23;;;;;;;;;;5022332;28;20575;-73
2022/07/12 08:24:17;;;;;;;5.47;4.97;;;;;;;;;;5021409;28;21093;-74
2022/07/12 08:26:42;;;;;;;5.68;5.15;;;;;;;;;;5019678;28;20488;-73
2022/07/12 08:29:07;;;;;;;6.50;5.90;;;;;;;;;;5039946;28;20189;-73
2022/07/12 08:31:32;;;;;;;6.30;5.70;;;;;;;;;;5049296;28;20181;-73
2022/07/12 08:33:58;;;;;;;8.32;5.35;;;;;;;;;;5049979;28;20173;-73
2022/07/12 08:36:23;;;;;;;6.57;4.57;;;;;;;;;;5045900;28;20186;-73
2022/07/12 08:38:48;;;;;;;5.80;5.17;;;;;;;;;;5048815;28;20186;-73
2022/07/12 08:41:14;;;;;;;4.72;4.32;;;;;;;;;;5047666;28;20466;-73
2022/07/12 08:43:39;;;;;;;5.47;4.90;;;;;;;;;;5048247;28;20202;-73
2022/07/12 08:46:09;;;;;;;6.30;5.55;;;;;;;;;;5048313;28;20690;-73
2022/07/12 08:48:34;;;;;;;6.50;5.90;;;;;;;;;;5048882;28;20614;-73
2022/07/12 08:51:04;;;;;;;6.28;5.68;;;;;;;;;;5049808;28;20249;-73
2022/07/12 08:53:29;;;;;;;7.50;5.10;;;;;;;;;;5047578;28;20177;-73
2022/07/12 08:55:54;;;;;;;5.72;5.20;;;;;;;;;;5049595;28;20201;-73
2022/07/12 08:58:20;;;;;;;6.50;5.87;;;;;;;;;;5050652;28;20190;-72
2022/07/12 09:00:45;;;;;;;5.30;4.85;;;;;;;;;;5034979;28;20534;-73
2022/07/12 09:03:12;;;;;;;6.07;5.57;;;;;;;;;;5004728;28;20206;-73
2022/07/12 09:05:37;;;;;;;5.88;5.10;;;;;;;;;;5021113;28;20579;-73
2022/07/12 09:08:02;;;;;;;5.40;5.00;;;;;;;;;;5025731;28;20185;-73
2022/07/12 09:10:28;;;;;;;7.78;5.40;;;;;;;;;;5023218;28;20216;-73
2022/07/12 09:12:53;;;;;;;5.18;4.78;;;;;;;;;;5026410;28;20186;-73
2022/07/12 09:15:19;;;;;;;5.65;4.65;;;;;;;;;;5031993;28;20332;-73
2022/07/12 09:18:12;;;;;;;4.82;4.38;;;;;;;;;;5025100;28;21878;-73
2022/07/12 09:20:38;;;;;;;5.85;5.22;;;;;;;;;;5025762;28;20174;-73
2022/07/12 09:23:06;;;;;;;5.35;4.85;;;;;;;;;;5011342;28;21089;-73
2022/07/12 09:25:32;;;;;;;6.03;4.85;;;;;;;;;;5025071;28;20240;-73
2022/07/12 09:27:58;;;;;;;5.05;4.53;;;;;;;;;;5023857;28;20661;-73
2022/07/12 09:30:27;;;;;;;4.50;3.60;;;;;;;;;;5025860;28;20182;-73
2022/07/12 09:36:07;;;;;;;4.80;3.20;;;;;;;;;;5027422;28;20233;-73
2022/07/12 09:38:38;;;;;;;3.42;3.22;;;;;;;;;;5022883;28;20189;-73
2022/07/12 09:41:05;;;;;;;4.95;3.78;;;;;;;;;;5023815;28;20316;-73
2022/07/12 09:43:30;;;;;;;6.80;3.53;;;;;;;;;;5028625;28;20779;-73
2022/07/12 09:45:55;;;;;;;3.92;3.60;;;;;;;;;;5022428;28;20209;-73
2022/07/12 09:48:21;;;;;;;6.05;3.92;;;;;;;;;;5026291;28;20841;-73
2022/07/12 09:50:48;;;;;;;3.95;3.65;;;;;;;;;;5025367;28;20188;-73
2022/07/12 09:53:27;;;;;;;6.18;5.10;;;;;;;;;;5022307;28;20271;-73
2022/07/12 09:55:52;;;;;;;5.13;4.63;;;;;;;;;;5024510;28;20572;-73
2022/07/12 09:58:30;;;;;;;4.47;4.07;;;;;;;;;;5024227;28;20173;-73
2022/07/12 10:00:56;;;;;;;4.80;4.03;;;;;;;;;;5029750;28;20185;-73
2022/07/12 10:03:24;;;;;;;2.95;2.75;;;;;;;;;;5028246;28;20197;-73
2022/07/12 10:05:53;;;;;;;5.15;3.63;;;;;;;;;;5024792;28;20214;-73
2022/07/12 10:08:19;;;;;;;4.65;4.20;;;;;;;;;;5028038;28;20190;-73
2022/07/12 10:10:44;;;;;;;5.88;5.05;;;;;;;;;;5025364;28;20438;-72
2022/07/12 10:13:10;;;;;;;6.32;5.72;;;;;;;;;;5010146;28;20616;-72
2022/07/12 10:15:35;;;;;;;4.68;4.07;;;;;;;;;;5026574;28;20205;-73
2022/07/12 10:18:02;;;;;;;4.70;3.83;;;;;;;;;;5021537;28;20677;-73
2022/07/12 10:20:27;;;;;;;6.15;5.55;;;;;;;;;;5018664;28;20192;-73
2022/07/12 10:22:53;;;;;;;5.65;4.55;;;;;;;;;;5023319;28;20193;-73
2022/07/12 10:25:25;;;;;;;4.97;3.95;;;;;;;;;;5023351;28;20717;-73
2022/07/12 10:27:50;;;;;;;5.07;3.78;;;;;;;;;;5022355;28;20174;-73
2022/07/12 10:30:16;;;;;;;6.57;5.37;;;;;;;;;;5048889;28;20188;-73
2022/07/12 10:32:43;;;;;;;6.47;5.82;;;;;;;;;;5049504;28;20596;-73
2022/07/12 10:35:13;;;;;;;7.78;5.22;;;;;;;;;;5049559;28;20224;-72
2022/07/12 10:37:39;;;;;;;4.00;3.28;;;;;;;;;;5049075;28;20709;-73
2022/07/12 10:40:14;;;;;;;8.35;4.47;;;;;;;;;;5033310;28;20197;-73
2022/07/12 10:42:40;;;;;;;4.88;3.88;;;;;;;;;;5051390;28;20235;-72
2022/07/12 10:45:15;;;;;;;3.25;2.97;;;;;;;;;;5034150;28;20192;-73
2022/07/12 10:47:56;;;;;;;4.72;3.97;;;;;;;;;;5046643;28;20244;-70
2022/07/12 10:50:40;;;;;;;4.43;4.03;;;;;;;;;;5048352;28;20532;-70
2022/07/12 10:53:28;;;;;;;4.07;3.78;;;;;;;;;;5046980;28;20177;-70
2022/07/12 10:56:15;;;;;;;4.18;3.53;;;;;;;;;;5048847;28;20642;-70
2022/07/12 10:58:42;;;;;;;3.65;3.35;;;;;;;;;;5053980;28;20243;-70
2022/07/12 11:01:08;;;;;;;5.10;4.70;;;;;;;;;;5028846;28;20182;-70
2022/07/12 11:03:37;;;;;;;5.22;4.70;;;;;;;;;;5023499;28;20226;-70
2022/07/12 11:06:03;;;;;;;3.35;3.15;;;;;;;;;;5022476;28;20263;-70
2022/07/12 11:08:28;;;;;;;3.90;3.55;;;;;;;;;;5023295;28;20201;-70
2022/07/12 11:10:54;;;;;;;3.78;3.42;;;;;;;;;;5023426;28;20173;-70
2022/07/12 11:13:22;;;;;;;3.85;3.20;;;;;;;;;;5026090;28;20185;-70
2022/07/12 11:15:56;;;;;;;4.22;2.80;;;;;;;;;;5022251;28;20204;-70
2022/07/12 11:18:29;;;;;;;6.15;5.20;;;;;;;;;;5022422;28;20671;-70
2022/07/12 11:20:56;;;;;;;4.95;4.60;;;;;;;;;;5028296;28;20184;-70
2022/07/12 11:23:21;;;;;;;5.20;4.78;;;;;;;;;;5023771;28;20286;-70
2022/07/12 11:25:46;;;;;;;3.70;3.40;;;;;;;;;;5021763;28;20202;-70
2022/07/12 11:28:12;;;;;;;3.87;3.37;;;;;;;;;;5022681;28;20192;-70
2022/07/12 11:30:37;;;;;;;5.30;4.90;;;;;;;;;;5022104;28;20426;-70
2022/07/12 11:33:02;;;;;;;7.22;6.20;;;;;;;;;;5021516;28;20648;-70
2022/07/12 11:35:28;;;;;;;6.67;4.83;;;;;;;;;;5021016;28;20236;-70
2022/07/12 11:37:54;;;;;;;4.95;4.40;;;;;;;;;;5020694;28;20585;-70
2022/07/12 11:40:23;;;;;;;4.10;3.65;;;;;;;;;;5023741;28;20193;-70
2022/07/12 11:42:58;;;;;;;3.75;3.40;;;;;;;;;;5023156;28;20205;-70
2022/07/12 11:45:23;;;;;;;4.60;4.20;;;;;;;;;;5023984;28;20717;-70
2022/07/12 11:47:48;;;;;;;4.50;4.10;;;;;;;;;;5022458;28;20308;-70
2022/07/12 11:50:17;;;;;;;5.50;4.27;;;;;;;;;;5021084;28;20764;-70
2022/07/12 11:52:43;;;;;;;5.15;4.68;;;;;;;;;;5026307;28;20422;-70
2022/07/12 11:55:08;;;;;;;4.93;4.53;;;;;;;;;;5019517;28;20236;-70
2022/07/12 11:57:33;;;;;;;6.00;5.17;;;;;;;;;;5020839;28;20181;-70
2022/07/12 12:00:12;;;;;;;6.47;5.90;;;;;;;;;;5021466;28;20619;-70
2022/07/12 12:02:37;;;;;;;7.50;6.63;;;;;;;;;;5022973;28;20174;-70
2022/07/12 12:05:04;;;;;;;6.97;6.13;;;;;;;;;;5041808;28;20196;-71
2022/07/12 12:07:29;;;;;;;6.10;5.50;;;;;;;;;;5048086;28;20262;-71
2022/07/12 12:09:59;;;;;;;5.82;4.93;;;;;;;;;;5021638;28;20315;-70
2022/07/12 12:12:24;;;;;;;4.95;4.55;;;;;;;;;;5022015;28;20181;-70
2022/07/12 12:14:49;;;;;;;4.93;4.53;;;;;;;;;;5026173;28;20253;-70
2022/07/12 12:17:14;;;;;;;5.00;4.53;;;;;;;;;;5027537;28;20579;-71
2022/07/12 12:19:42;;;;;;;5.80;3.80;;;;;;;;;;5027778;28;20655;-70
2022/07/12 12:22:27;;;;;;;3.50;3.20;;;;;;;;;;5022336;28;20580;-70
2022/07/12 12:24:59;;;;;;;3.83;3.22;;;;;;;;;;5019916;28;20200;-70
2022/07/12 12:27:25;;;;;;;6.60;4.85;;;;;;;;;;5022067;28;20208;-70
2022/07/12 12:29:51;;;;;;;3.97;3.60;;;;;;;;;;5036404;28;20177;-71
2022/07/12 12:32:17;;;;;;;3.67;3.00;;;;;;;;;;5049188;28;20275;-71
2022/07/12 12:35:02;;;;;;;2.53;2.33;;;;;;;;;;5048720;28;20725;-71
2022/07/12 12:37:28;;;;;;;3.75;2.67;;;;;;;;;;5042805;28;20180;-71
2022/07/12 12:39:53;;;;;;;3.90;2.93;;;;;;;;;;5047537;28;20188;-70
2022/07/12 12:42:23;;;;;;;4.63;4.20;;;;;;;;;;5050560;28;20611;-71
2022/07/12 12:44:48;;;;;;;2.60;2.40;;;;;;;;;;5052885;28;20458;-71
2022/07/12 12:47:32;;;;;;;2.40;2.20;;;;;;;;;;5049635;28;20720;-70
2022/07/12 12:49:57;;;;;;;2.85;2.28;;;;;;;;;;5052753;28;20212;-71
2022/07/12 12:52:23;;;;;;;3.20;2.92;;;;;;;;;;5054181;28;20196;-70
2022/07/12 12:54:48;;;;;;;2.92;2.60;;;;;;;;;;5053042;28;20209;-70
2022/07/12 12:57:13;;;;;;;2.30;2.10;;;;;;;;;;5053118;28;20642;-71
2022/07/12 12:59:38;;;;;;;2.73;2.30;;;;;;;;;;5053797;28;20181;-70
2022/07/12 13:02:04;;;;;;;2.87;2.20;;;;;;;;;;5050520;28;20177;-71
2022/07/12 13:04:30;;;;;;;5.07;3.50;;;;;;;;;;5047285;28;20466;-70
2022/07/12 13:06:56;;;;;;;5.10;3.17;;;;;;;;;;5038946;28;20365;-71
2022/07/12 13:09:21;;;;;;;6.18;2.55;;;;;;;;;;5025538;28;20535;-70
2022/07/12 13:11:47;;;;;;;6.25;3.20;;;;;;;;;;5024097;28;20721;-70
2022/07/12 13:14:12;;;;;;;2.40;2.10;;;;;;;;;;5028681;28;20925;-70
2022/07/12 13:16:38;;;;;;;3.93;3.00;;;;;;;;;;5022897;28;20208;-70
2022/07/12 13:19:03;;;;;;;3.50;3.13;;;;;;;;;;5033271;28;20186;-70
2022/07/12 13:21:28;;;;;;;5.03;3.27;;;;;;;;;;5028134;28;20259;-70
2022/07/12 13:23:54;;;;;;;5.07;2.43;;;;;;;;;;5024423;28;20462;-70
2022/07/12 13:26:19;;;;;;;2.38;2.17;;;;;;;;;;5025488;28;20678;-70
2022/07/12 13:28:44;;;;;;;2.83;2.23;;;;;;;;;;5023519;28;20204;-70
2022/07/12 13:31:09;;;;;;;5.47;2.60;;;;;;;;;;5025390;28;20640;-70
2022/07/12 13:33:34;;;;;;;3.13;2.10;;;;;;;;;;5031962;28;20185;-70
2022/07/12 13:36:00;;;;;;;6.57;2.87;;;;;;;;;;5022886;28;20485;-70
2022/07/12 13:38:25;;;;;;;3.90;2.43;;;;;;;;;;5022477;28;20185;-70
2022/07/12 13:40:51;;;;;;;3.13;2.13;;;;;;;;;;5007536;28;20189;-70
2022/07/12 13:43:16;;;;;;;2.40;2.17;;;;;;;;;;5027772;28;20278;-70
2022/07/12 13:45:44;;;;;;;2.47;2.03;;;;;;;;;;5030866;28;20209;-70
2022/07/12 13:48:09;;;;;;;2.90;1.90;;;;;;;;;;5022023;28;20184;-69
2022/07/12 13:50:34;;;;;;;4.20;1.80;;;;;;;;;;5022140;28;20280;-70
2022/07/12 13:52:59;;;;;;;2.93;2.17;;;;;;;;;;5024287;28;20188;-70
2022/07/12 13:55:25;;;;;;;4.53;2.60;;;;;;;;;;5025749;28;20205;-69
2022/07/12 13:57:50;;;;;;;2.77;2.57;;;;;;;;;;5022281;28;20533;-69
2022/07/12 14:00:16;;;;;;;3.72;2.83;;;;;;;;;;5034024;28;20430;-69
2022/07/12 14:02:43;;;;;;;3.88;2.95;;;;;;;;;;5024087;28;20185;-70
2022/07/12 14:05:09;;;;;;;3.20;2.90;;;;;;;;;;5022846;28;20210;-70
2022/07/12 14:07:36;;;;;;;7.28;3.25;;;;;;;;;;5038558;28;20207;-72
2022/07/12 14:10:01;;;;;;;2.83;1.98;;;;;;;;;;5050520;28;20174;-72
2022/07/12 14:12:27;;;;;;;1.98;1.85;;;;;;;;;;5050864;28;20716;-72
2022/07/12 14:17:36;;;;;;;5.15;2.13;;;;;;;;;;5048399;28;20216;-72
2022/07/12 14:20:01;;;;;;;2.75;1.40;;;;;;;;;;5052641;28;20651;-72
2022/07/12 14:22:27;;;;;;;1.92;1.73;;;;;;;;;;5038105;28;20185;-72
2022/07/12 14:24:53;;;;;;;1.88;1.77;;;;;;;;;;5027154;28;20214;-72
2022/07/12 14:27:18;;;;;;;3.15;1.77;;;;;;;;;;5011413;28;20201;-72
2022/07/12 14:29:43;;;;;;;1.70;1.60;;;;;;;;;;5037980;28;20643;-72
2022/07/12 14:32:09;;;;;;;4.70;1.50;;;;;;;;;;5050331;28;20177;-72
2022/07/12 14:34:34;;;;;;;2.08;1.98;;;;;;;;;;5051275;28;20438;-72
2022/07/12 14:37:01;;;;;;;3.28;1.80;;;;;;;;;;5047307;28;20174;-72
2022/07/12 14:39:26;;;;;;;1.77;1.67;;;;;;;;;;5033107;28;20181;-72
2022/07/12 14:41:51;;;;;;;4.83;1.77;;;;;;;;;;5049984;28;20595;-72
2022/07/12 14:44:18;;;;;;;1.57;1.43;;;;;;;;;;5051143;28;20484;-72